sensor_id;sensor_type;location;lat;lon;timestamp;pressure;altitude;pressure_sealevel;temperature;humidity
80103;BME280;69865;47.648;19.030;2024-03-08T00:00:23;100850.56;;;5.09;100.00
80103;BME280;69865;47.648;19.030;2024-03-08T00:00:56;100850.56;;;5.09;100.00
80103;BME280;69865;47.648;19.030;2024-03-08T00:01:31;100853.06;;;5.10;100.00
80103;BME280;69865;47.648;19.030;2024-03-08T00:02:03;100852.50;;;5.05;100.00
80103;BME280;69865;47.648;19.030;2024-03-08T00:02:36;100853.50;;;5.03;100.00
80103;BME280;69865;47.648;19.030;2024-03-08T00:03:08;100856.03;;;5.04;100.00
80103;BME280;69865;47.648;19.030;2024-03-08T00:03:40;100853.31;;;5.06;100.00
80103;BME280;69865;47.648;19.030;2024-03-08T00:04:12;100848.09;;;5.06;100.00
80103;BME280;69865;47.648;19.030;2024-03-08T00:04:45;100852.59;;;5.04;100.00
80103;BME280;69865;47.648;19.030;2024-03-08T00:05:17;100853.44;;;5.04;100.00
80103;BME280;69865;47.648;19.030;2024-03-08T00:05:49;100857.81;;;5.04;100.00
80103;BME280;69865;47.648;19.030;2024-03-08T00:06:21;100855.13;;;5.05;100.00
80103;BME280;69865;47.648;19.030;2024-03-08T00:06:54;100851.66;;;5.05;100.00
80103;BME280;69865;47.648;19.030;2024-03-08T00:07:26;100854.28;;;5.05;100.00
80103;BME280;69865;47.648;19.030;2024-03-08T00:07:58;100850.81;;;5.04;100.00
80103;BME280;69865;47.648;19.030;2024-03-08T00:08:30;100855.38;;;5.01;100.00
80103;BME280;69865;47.648;19.030;2024-03-08T00:09:03;100848.47;;;5.00;100.00
80103;BME280;69865;47.648;19.030;2024-03-08T00:09:35;100852.75;;;5.01;100.00
80103;BME280;69865;47.648;19.030;2024-03-08T00:10:10;100852.50;;;5.05;100.00
80103;BME280;69865;47.648;19.030;2024-03-08T00:10:44;100848.94;;;5.06;100.00
80103;BME280;69865;47.648;19.030;2024-03-08T00:11:16;100854.16;;;5.06;100.00
80103;BME280;69865;47.648;19.030;2024-03-08T00:11:48;100856.72;;;5.08;100.00
80103;BME280;69865;47.648;19.030;2024-03-08T00:12:20;100851.41;;;5.09;100.00
80103;BME280;69865;47.648;19.030;2024-03-08T00:12:53;100853.91;;;5.11;100.00
80103;BME280;69865;47.648;19.030;2024-03-08T00:13:25;100853.91;;;5.11;100.00
80103;BME280;69865;47.648;19.030;2024-03-08T00:13:57;100858.28;;;5.10;100.00
80103;BME280;69865;47.648;19.030;2024-03-08T00:14:29;100853.91;;;5.11;100.00
80103;BME280;69865;47.648;19.030;2024-03-08T00:15:02;100856.44;;;5.12;100.00
80103;BME280;69865;47.648;19.030;2024-03-08T00:15:34;100854.69;;;5.13;100.00
80103;BME280;69865;47.648;19.030;2024-03-08T00:16:06;100854.69;;;5.13;100.00
80103;BME280;69865;47.648;19.030;2024-03-08T00:16:39;100853.84;;;5.12;100.00
80103;BME280;69865;47.648;19.030;2024-03-08T00:17:11;100849.63;;;5.10;100.00
80103;BME280;69865;47.648;19.030;2024-03-08T00:17:44;100857.38;;;5.11;100.00
80103;BME280;69865;47.648;19.030;2024-03-08T00:18:17;100848.63;;;5.12;100.00
80103;BME280;69865;47.648;19.030;2024-03-08T00:18:49;100851.22;;;5.12;100.00
80103;BME280;69865;47.648;19.030;2024-03-08T00:19:22;100857.28;;;5.13;100.00
80103;BME280;69865;47.648;19.030;2024-03-08T00:19:54;100853.66;;;5.15;100.00
80103;BME280;69865;47.648;19.030;2024-03-08T00:20:27;100846.84;;;5.13;100.00
80103;BME280;69865;47.648;19.030;2024-03-08T00:21:00;100845.91;;;5.14;100.00
80103;BME280;69865;47.648;19.030;2024-03-08T00:21:32;100849.34;;;5.14;100.00
80103;BME280;69865;47.648;19.030;2024-03-08T00:22:04;100852.06;;;5.13;100.00
80103;BME280;69865;47.648;19.030;2024-03-08T00:22:37;100853.06;;;5.10;100.00
80103;BME280;69865;47.648;19.030;2024-03-08T00:23:09;100852.06;;;5.13;100.00
80103;BME280;69865;47.648;19.030;2024-03-08T00:23:42;100858.97;;;5.14;100.00
80103;BME280;69865;47.648;19.030;2024-03-08T00:24:14;100857.13;;;5.16;100.00
80103;BME280;69865;47.648;19.030;2024-03-08T00:24:46;100851.91;;;5.16;100.00
80103;BME280;69865;47.648;19.030;2024-03-08T00:25:20;100852.75;;;5.16;100.00
80103;BME280;69865;47.648;19.030;2024-03-08T00:25:53;100851.81;;;5.17;100.00
80103;BME280;69865;47.648;19.030;2024-03-08T00:26:25;100854.44;;;5.17;100.00
80103;BME280;69865;47.648;19.030;2024-03-08T00:26:57;100856.09;;;5.18;100.00
80103;BME280;69865;47.648;19.030;2024-03-08T00:27:29;100854.34;;;5.19;100.00
80103;BME280;69865;47.648;19.030;2024-03-08T00:28:01;100852.56;;;5.19;100.00
80103;BME280;69865;47.648;19.030;2024-03-08T00:28:34;100848.94;;;5.22;100.00
80103;BME280;69865;47.648;19.030;2024-03-08T00:29:06;100852.31;;;5.24;100.00
80103;BME280;69865;47.648;19.030;2024-03-08T00:29:38;100841.94;;;5.22;100.00
80103;BME280;69865;47.648;19.030;2024-03-08T00:30:11;100847.94;;;5.25;100.00
80103;BME280;69865;47.648;19.030;2024-03-08T00:30:43;100848.84;;;5.24;100.00
80103;BME280;69865;47.648;19.030;2024-03-08T00:31:15;100850.88;;;5.18;100.00
80103;BME280;69865;47.648;19.030;2024-03-08T00:31:48;100854.34;;;5.19;100.00
80103;BME280;69865;47.648;19.030;2024-03-08T00:32:20;100849.94;;;5.19;100.00
80103;BME280;69865;47.648;19.030;2024-03-08T00:32:52;100844.81;;;5.18;100.00
80103;BME280;69865;47.648;19.030;2024-03-08T00:33:24;100851.06;;;5.15;100.00
80103;BME280;69865;47.648;19.030;2024-03-08T00:33:57;100846.75;;;5.14;100.00
80103;BME280;69865;47.648;19.030;2024-03-08T00:34:29;100846.00;;;5.12;100.00
80103;BME280;69865;47.648;19.030;2024-03-08T00:35:02;100834.66;;;5.13;100.00
80103;BME280;69865;47.648;19.030;2024-03-08T00:35:34;100851.06;;;5.15;100.00
80103;BME280;69865;47.648;19.030;2024-03-08T00:36:06;100846.75;;;5.14;100.00
80103;BME280;69865;47.648;19.030;2024-03-08T00:36:39;100846.84;;;5.13;100.00
80103;BME280;69865;47.648;19.030;2024-03-08T00:37:11;100837.41;;;5.10;100.00
80103;BME280;69865;47.648;19.030;2024-03-08T00:37:43;100846.25;;;5.08;100.00
80103;BME280;69865;47.648;19.030;2024-03-08T00:38:15;100843.72;;;5.06;100.00
80103;BME280;69865;47.648;19.030;2024-03-08T00:38:51;100839.34;;;5.07;100.00
80103;BME280;69865;47.648;19.030;2024-03-08T00:39:23;100844.56;;;5.07;100.00
80103;BME280;69865;47.648;19.030;2024-03-08T00:39:55;100841.22;;;5.05;100.00
80103;BME280;69865;47.648;19.030;2024-03-08T00:40:29;100843.66;;;5.08;100.00
80103;BME280;69865;47.648;19.030;2024-03-08T00:41:01;100842.56;;;5.12;100.00
80103;BME280;69865;47.648;19.030;2024-03-08T00:41:34;100844.31;;;5.11;100.00
80103;BME280;69865;47.648;19.030;2024-03-08T00:42:06;100844.56;;;5.07;100.00
80103;BME280;69865;47.648;19.030;2024-03-08T00:42:38;100841.97;;;5.07;100.00
80103;BME280;69865;47.648;19.030;2024-03-08T00:43:10;100839.16;;;5.10;100.00
80103;BME280;69865;47.648;19.030;2024-03-08T00:43:43;100840.78;;;5.12;100.00
80103;BME280;69865;47.648;19.030;2024-03-08T00:44:15;100841.53;;;5.14;100.00
80103;BME280;69865;47.648;19.030;2024-03-08T00:44:47;100837.09;;;5.16;100.00
80103;BME280;69865;47.648;19.030;2024-03-08T00:45:19;100847.41;;;5.18;100.00
80103;BME280;69865;47.648;19.030;2024-03-08T00:45:52;100842.19;;;5.18;100.00
80103;BME280;69865;47.648;19.030;2024-03-08T00:46:24;100845.75;;;5.17;100.00
80103;BME280;69865;47.648;19.030;2024-03-08T00:46:56;100842.19;;;5.18;100.00
80103;BME280;69865;47.648;19.030;2024-03-08T00:47:28;100840.63;;;5.15;100.00
80103;BME280;69865;47.648;19.030;2024-03-08T00:48:00;100834.53;;;5.15;100.00
80103;BME280;69865;47.648;19.030;2024-03-08T00:48:33;100840.69;;;5.14;100.00
80103;BME280;69865;47.648;19.030;2024-03-08T00:49:05;100850.22;;;5.15;100.00
80103;BME280;69865;47.648;19.030;2024-03-08T00:49:38;100844.91;;;5.16;100.00
80103;BME280;69865;47.648;19.030;2024-03-08T00:50:10;100839.69;;;5.16;100.00
80103;BME280;69865;47.648;19.030;2024-03-08T00:50:42;100843.03;;;5.18;100.00
80103;BME280;69865;47.648;19.030;2024-03-08T00:51:15;100842.19;;;5.18;100.00
80103;BME280;69865;47.648;19.030;2024-03-08T00:51:47;100837.09;;;5.16;100.00
80103;BME280;69865;47.648;19.030;2024-03-08T00:52:19;100834.53;;;5.15;100.00
80103;BME280;69865;47.648;19.030;2024-03-08T00:52:51;100841.44;;;5.16;100.00
80103;BME280;69865;47.648;19.030;2024-03-08T00:53:24;100834.47;;;5.16;100.00
80103;BME280;69865;47.648;19.030;2024-03-08T00:53:56;100841.28;;;5.19;100.00
80103;BME280;69865;47.648;19.030;2024-03-08T00:54:28;100839.59;;;5.18;100.00
80103;BME280;69865;47.648;19.030;2024-03-08T00:55:00;100831.84;;;5.16;100.00
80103;BME280;69865;47.648;19.030;2024-03-08T00:55:34;100845.56;;;5.20;100.00
80103;BME280;69865;47.648;19.030;2024-03-08T00:56:06;100838.78;;;5.17;100.00
80103;BME280;69865;47.648;19.030;2024-03-08T00:56:39;100840.53;;;5.17;100.00
80103;BME280;69865;47.648;19.030;2024-03-08T00:57:11;100840.53;;;5.17;100.00
80103;BME280;69865;47.648;19.030;2024-03-08T00:57:44;100840.53;;;5.17;100.00
80103;BME280;69865;47.648;19.030;2024-03-08T00:58:16;100840.53;;;5.17;100.00
80103;BME280;69865;47.648;19.030;2024-03-08T00:58:48;100835.31;;;5.17;100.00
80103;BME280;69865;47.648;19.030;2024-03-08T00:59:20;100837.94;;;5.17;100.00
80103;BME280;69865;47.648;19.030;2024-03-08T00:59:52;100843.03;;;5.18;100.00
80103;BME280;69865;47.648;19.030;2024-03-08T01:00:25;100838.78;;;5.17;100.00
80103;BME280;69865;47.648;19.030;2024-03-08T01:00:57;100833.44;;;5.19;100.00
80103;BME280;69865;47.648;19.030;2024-03-08T01:01:29;100835.13;;;5.20;100.00
80103;BME280;69865;47.648;19.030;2024-03-08T01:02:02;100837.81;;;5.18;100.00
80103;BME280;69865;47.648;19.030;2024-03-08T01:02:34;100837.81;;;5.18;100.00
80103;BME280;69865;47.648;19.030;2024-03-08T01:03:06;100830.84;;;5.19;100.00
80103;BME280;69865;47.648;19.030;2024-03-08T01:03:39;100833.38;;;5.20;100.00
80103;BME280;69865;47.648;19.030;2024-03-08T01:04:11;100835.97;;;5.20;100.00
80103;BME280;69865;47.648;19.030;2024-03-08T01:04:44;100833.25;;;5.22;100.00
80103;BME280;69865;47.648;19.030;2024-03-08T01:05:16;100834.03;;;5.24;100.00
80103;BME280;69865;47.648;19.030;2024-03-08T01:05:49;100838.41;;;5.24;100.00
80103;BME280;69865;47.648;19.030;2024-03-08T01:06:21;100835.88;;;5.22;100.00
80103;BME280;69865;47.648;19.030;2024-03-08T01:06:53;100839.31;;;5.22;100.00
80103;BME280;69865;47.648;19.030;2024-03-08T01:07:25;100834.09;;;5.22;100.00
80103;BME280;69865;47.648;19.030;2024-03-08T01:07:57;100831.50;;;5.22;100.00
80103;BME280;69865;47.648;19.030;2024-03-08T01:08:30;100839.25;;;5.24;100.00
80103;BME280;69865;47.648;19.030;2024-03-08T01:09:02;100835.78;;;5.24;100.00
80103;BME280;69865;47.648;19.030;2024-03-08T01:09:34;100828.88;;;5.22;100.00
80103;BME280;69865;47.648;19.030;2024-03-08T01:10:07;100836.72;;;5.22;100.00
80103;BME280;69865;47.648;19.030;2024-03-08T01:10:41;100832.41;;;5.21;100.00
80103;BME280;69865;47.648;19.030;2024-03-08T01:11:13;100828.03;;;5.22;100.00
80103;BME280;69865;47.648;19.030;2024-03-08T01:11:45;100828.03;;;5.22;100.00
80103;BME280;69865;47.648;19.030;2024-03-08T01:12:17;100833.19;;;5.24;100.00
80103;BME280;69865;47.648;19.030;2024-03-08T01:12:50;100829.66;;;5.25;100.00
80103;BME280;69865;47.648;19.030;2024-03-08T01:13:22;100827.78;;;5.27;100.00
80103;BME280;69865;47.648;19.030;2024-03-08T01:13:54;100835.53;;;5.28;100.00
80103;BME280;69865;47.648;19.030;2024-03-08T01:14:27;100823.41;;;5.27;100.00
80103;BME280;69865;47.648;19.030;2024-03-08T01:14:59;100833.78;;;5.29;100.00
80103;BME280;69865;47.648;19.030;2024-03-08T01:15:31;100835.44;;;5.30;100.00
80103;BME280;69865;47.648;19.030;2024-03-08T01:16:04;100828.63;;;5.27;100.00
80103;BME280;69865;47.648;19.030;2024-03-08T01:16:36;100833.94;;;5.26;100.00
80103;BME280;69865;47.648;19.030;2024-03-08T01:17:09;100834.69;;;5.28;100.00
80103;BME280;69865;47.648;19.030;2024-03-08T01:17:41;100828.63;;;5.27;100.00
80103;BME280;69865;47.648;19.030;2024-03-08T01:18:29;100830.22;;;5.30;100.00
80103;BME280;69865;47.648;19.030;2024-03-08T01:19:01;100833.84;;;5.27;100.00
80103;BME280;69865;47.648;19.030;2024-03-08T01:19:34;100836.47;;;5.27;100.00
80103;BME280;69865;47.648;19.030;2024-03-08T01:20:07;100830.56;;;5.24;100.00
80103;BME280;69865;47.648;19.030;2024-03-08T01:20:39;100832.53;;;5.20;100.00
80103;BME280;69865;47.648;19.030;2024-03-08T01:21:11;100834.38;;;5.18;100.00
80103;BME280;69865;47.648;19.030;2024-03-08T01:21:44;100830.94;;;5.17;100.00
80103;BME280;69865;47.648;19.030;2024-03-08T01:22:16;100828.22;;;5.19;100.00
80103;BME280;69865;47.648;19.030;2024-03-08T01:22:48;100835.31;;;5.17;100.00
80103;BME280;69865;47.648;19.030;2024-03-08T01:23:20;100833.53;;;5.17;100.00
80103;BME280;69865;47.648;19.030;2024-03-08T01:23:52;100830.75;;;5.20;100.00
80103;BME280;69865;47.648;19.030;2024-03-08T01:24:25;100832.41;;;5.21;100.00
80103;BME280;69865;47.648;19.030;2024-03-08T01:24:57;100831.50;;;5.22;100.00
80103;BME280;69865;47.648;19.030;2024-03-08T01:25:29;100837.56;;;5.23;100.00
80103;BME280;69865;47.648;19.030;2024-03-08T01:26:03;100830.56;;;5.24;100.00
80103;BME280;69865;47.648;19.030;2024-03-08T01:26:35;100829.72;;;5.23;100.00
80103;BME280;69865;47.648;19.030;2024-03-08T01:27:07;100828.03;;;5.22;100.00
80103;BME280;69865;47.648;19.030;2024-03-08T01:27:46;100827.13;;;5.23;100.00
80103;BME280;69865;47.648;19.030;2024-03-08T01:28:18;100827.03;;;5.25;100.00
80103;BME280;69865;47.648;19.030;2024-03-08T01:28:50;100830.50;;;5.25;100.00
80103;BME280;69865;47.648;19.030;2024-03-08T01:29:22;100829.72;;;5.23;100.00
80103;BME280;69865;47.648;19.030;2024-03-08T01:29:54;100825.44;;;5.22;100.00
80103;BME280;69865;47.648;19.030;2024-03-08T01:30:27;100836.72;;;5.22;100.00
80103;BME280;69865;47.648;19.030;2024-03-08T01:30:59;100827.31;;;5.20;100.00
80103;BME280;69865;47.648;19.030;2024-03-08T01:31:32;100831.69;;;5.19;100.00
80103;BME280;69865;47.648;19.030;2024-03-08T01:32:05;100830.66;;;5.22;100.00
80103;BME280;69865;47.648;19.030;2024-03-08T01:32:37;100829.00;;;5.21;100.00
80103;BME280;69865;47.648;19.030;2024-03-08T01:33:09;100829.06;;;5.19;100.00
80103;BME280;69865;47.648;19.030;2024-03-08T01:33:42;100827.31;;;5.20;100.00
80103;BME280;69865;47.648;19.030;2024-03-08T01:34:19;100829.81;;;5.21;100.00
80103;BME280;69865;47.648;19.030;2024-03-08T01:34:51;100828.03;;;5.22;100.00
80103;BME280;69865;47.648;19.030;2024-03-08T01:35:24;100822.81;;;5.22;100.00
80103;BME280;69865;47.648;19.030;2024-03-08T01:35:56;100830.84;;;5.19;100.00
80103;BME280;69865;47.648;19.030;2024-03-08T01:36:28;100825.88;;;5.14;100.00
80103;BME280;69865;47.648;19.030;2024-03-08T01:37:01;100827.47;;;5.17;100.00
80103;BME280;69865;47.648;19.030;2024-03-08T01:37:33;100828.22;;;5.19;100.00
80103;BME280;69865;47.648;19.030;2024-03-08T01:38:05;100825.59;;;5.19;100.00
80103;BME280;69865;47.648;19.030;2024-03-08T01:38:44;100828.31;;;5.17;100.00
80103;BME280;69865;47.648;19.030;2024-03-08T01:39:23;100832.41;;;5.21;100.00
80103;BME280;69865;47.648;19.030;2024-03-08T01:39:55;100827.19;;;5.21;100.00
80103;BME280;69865;47.648;19.030;2024-03-08T01:40:27;100829.06;;;5.19;100.00
80103;BME280;69865;47.648;19.030;2024-03-08T01:40:59;100831.69;;;5.19;100.00
80103;BME280;69865;47.648;19.030;2024-03-08T01:41:33;100824.69;;;5.20;100.00
80103;BME280;69865;47.648;19.030;2024-03-08T01:42:05;100831.50;;;5.22;100.00
80103;BME280;69865;47.648;19.030;2024-03-08T01:42:39;100828.16;;;5.20;100.00
80103;BME280;69865;47.648;19.030;2024-03-08T01:43:19;100832.53;;;5.20;100.00
80103;BME280;69865;47.648;19.030;2024-03-08T01:43:51;100828.31;;;5.17;100.00
80103;BME280;69865;47.648;19.030;2024-03-08T01:44:23;100826.53;;;5.18;100.00
80103;BME280;69865;47.648;19.030;2024-03-08T01:44:55;100831.75;;;5.18;100.00
80103;BME280;69865;47.648;19.030;2024-03-08T01:45:28;100835.22;;;5.18;100.00
80103;BME280;69865;47.648;19.030;2024-03-08T01:46:01;100827.31;;;5.20;100.00
80103;BME280;69865;47.648;19.030;2024-03-08T01:46:35;100829.91;;;5.20;100.00
80103;BME280;69865;47.648;19.030;2024-03-08T01:47:07;100830.00;;;5.18;100.00
80103;BME280;69865;47.648;19.030;2024-03-08T01:47:40;100832.59;;;5.18;100.00
80103;BME280;69865;47.648;19.030;2024-03-08T01:48:17;100828.22;;;5.19;100.00
80103;BME280;69865;47.648;19.030;2024-03-08T01:48:50;100831.69;;;5.19;100.00
80103;BME280;69865;47.648;19.030;2024-03-08T01:49:25;100826.63;;;5.16;100.00
80103;BME280;69865;47.648;19.030;2024-03-08T01:49:58;100827.97;;;5.24;100.00
80103;BME280;69865;47.648;19.030;2024-03-08T01:50:34;100831.50;;;5.22;100.00
80103;BME280;69865;47.648;19.030;2024-03-08T01:51:07;100829.00;;;5.21;100.00
80103;BME280;69865;47.648;19.030;2024-03-08T01:51:40;100829.66;;;5.25;100.00
80103;BME280;69865;47.648;19.030;2024-03-08T01:52:13;100825.28;;;5.25;100.00
80103;BME280;69865;47.648;19.030;2024-03-08T01:52:45;100821.06;;;5.22;100.00
80103;BME280;69865;47.648;19.030;2024-03-08T01:53:18;100824.50;;;5.23;100.00
80103;BME280;69865;47.648;19.030;2024-03-08T01:53:50;100822.94;;;5.20;100.00
80103;BME280;69865;47.648;19.030;2024-03-08T01:54:23;100827.13;;;5.23;100.00
80103;BME280;69865;47.648;19.030;2024-03-08T01:54:57;100827.97;;;5.24;100.00
80103;BME280;69865;47.648;19.030;2024-03-08T01:55:31;100821.81;;;5.25;100.00
80103;BME280;69865;47.648;19.030;2024-03-08T01:56:06;100829.66;;;5.25;100.00
80103;BME280;69865;47.648;19.030;2024-03-08T01:56:40;100825.28;;;5.25;100.00
80103;BME280;69865;47.648;19.030;2024-03-08T01:57:13;100829.66;;;5.25;100.00
80103;BME280;69865;47.648;19.030;2024-03-08T01:57:45;100825.34;;;5.24;100.00
80103;BME280;69865;47.648;19.030;2024-03-08T01:58:17;100831.25;;;5.27;100.00
80103;BME280;69865;47.648;19.030;2024-03-08T01:58:50;100827.78;;;5.27;100.00
80103;BME280;69865;47.648;19.030;2024-03-08T01:59:23;100825.16;;;5.27;100.00
80103;BME280;69865;47.648;19.030;2024-03-08T01:59:56;100823.59;;;5.24;100.00
80103;BME280;69865;47.648;19.030;2024-03-08T02:00:30;100826.28;;;5.22;100.00
80103;BME280;69865;47.648;19.030;2024-03-08T02:01:03;100825.44;;;5.22;100.00
80103;BME280;69865;47.648;19.030;2024-03-08T02:01:36;100821.22;;;5.19;100.00
80103;BME280;69865;47.648;19.030;2024-03-08T02:02:09;100823.09;;;5.17;100.00
80103;BME280;69865;47.648;19.030;2024-03-08T02:02:44;100824.88;;;5.17;100.00
80103;BME280;69865;47.648;19.030;2024-03-08T02:03:19;100826.63;;;5.16;100.00
80103;BME280;69865;47.648;19.030;2024-03-08T02:03:51;100822.34;;;5.15;100.00
80103;BME280;69865;47.648;19.030;2024-03-08T02:04:23;100831.69;;;5.19;100.00
80103;BME280;69865;47.648;19.030;2024-03-08T02:04:56;100821.16;;;5.21;100.00
80103;BME280;69865;47.648;19.030;2024-03-08T02:05:28;100831.50;;;5.22;100.00
80103;BME280;69865;47.648;19.030;2024-03-08T02:06:00;100830.50;;;5.25;100.00
80103;BME280;69865;47.648;19.030;2024-03-08T02:06:32;100828.81;;;5.24;100.00
80103;BME280;69865;47.648;19.030;2024-03-08T02:07:04;100829.72;;;5.23;100.00
80103;BME280;69865;47.648;19.030;2024-03-08T02:07:37;100826.38;;;5.21;100.00
80103;BME280;69865;47.648;19.030;2024-03-08T02:08:09;100826.47;;;5.19;100.00
80103;BME280;69865;47.648;19.030;2024-03-08T02:08:51;100830.66;;;5.22;100.00
80103;BME280;69865;47.648;19.030;2024-03-08T02:09:24;100832.25;;;5.25;100.00
80103;BME280;69865;47.648;19.030;2024-03-08T02:09:56;100827.88;;;5.25;100.00
80103;BME280;69865;47.648;19.030;2024-03-08T02:10:28;100830.56;;;5.24;100.00
80103;BME280;69865;47.648;19.030;2024-03-08T02:11:01;100828.88;;;5.22;100.00
80103;BME280;69865;47.648;19.030;2024-03-08T02:11:34;100824.50;;;5.23;100.00
80103;BME280;69865;47.648;19.030;2024-03-08T02:12:08;100830.41;;;5.27;100.00
80103;BME280;69865;47.648;19.030;2024-03-08T02:12:41;100826.94;;;5.26;100.00
80103;BME280;69865;47.648;19.030;2024-03-08T02:13:13;100830.41;;;5.27;100.00
80103;BME280;69865;47.648;19.030;2024-03-08T02:13:45;100832.16;;;5.26;100.00
80103;BME280;69865;47.648;19.030;2024-03-08T02:14:17;100826.09;;;5.26;100.00
80103;BME280;69865;47.648;19.030;2024-03-08T02:14:50;100817.53;;;5.24;100.00
80103;BME280;69865;47.648;19.030;2024-03-08T02:15:22;100821.81;;;5.25;100.00
80103;BME280;69865;47.648;19.030;2024-03-08T02:16:10;100826.09;;;5.26;100.00
80103;BME280;69865;47.648;19.030;2024-03-08T02:16:42;100824.44;;;5.25;100.00
80103;BME280;69865;47.648;19.030;2024-03-08T02:17:14;100824.44;;;5.25;100.00
80103;BME280;69865;47.648;19.030;2024-03-08T02:17:47;100825.34;;;5.24;100.00
80103;BME280;69865;47.648;19.030;2024-03-08T02:18:19;100822.75;;;5.24;100.00
80103;BME280;69865;47.648;19.030;2024-03-08T02:18:52;100825.34;;;5.24;100.00
80103;BME280;69865;47.648;19.030;2024-03-08T02:19:24;100831.31;;;5.26;100.00
80103;BME280;69865;47.648;19.030;2024-03-08T02:19:56;100822.56;;;5.27;100.00
80103;BME280;69865;47.648;19.030;2024-03-08T02:20:32;100824.44;;;5.25;100.00
80103;BME280;69865;47.648;19.030;2024-03-08T02:21:06;100824.59;;;5.21;100.00
80103;BME280;69865;47.648;19.030;2024-03-08T02:21:39;100823.78;;;5.21;100.00
80103;BME280;69865;47.648;19.030;2024-03-08T02:22:14;100826.47;;;5.19;100.00
80103;BME280;69865;47.648;19.030;2024-03-08T02:22:46;100824.69;;;5.20;100.00
80103;BME280;69865;47.648;19.030;2024-03-08T02:23:19;100824.50;;;5.23;100.00
80103;BME280;69865;47.648;19.030;2024-03-08T02:23:51;100822.06;;;5.20;100.00
80103;BME280;69865;47.648;19.030;2024-03-08T02:24:23;100822.16;;;5.18;100.00
80103;BME280;69865;47.648;19.030;2024-03-08T02:24:56;100823.34;;;5.13;100.00
80103;BME280;69865;47.648;19.030;2024-03-08T02:25:30;100820.81;;;5.11;100.00
80103;BME280;69865;47.648;19.030;2024-03-08T02:26:02;100827.56;;;5.15;100.00
80103;BME280;69865;47.648;19.030;2024-03-08T02:26:34;100828.41;;;5.16;100.00
80103;BME280;69865;47.648;19.030;2024-03-08T02:27:06;100827.31;;;5.20;100.00
80103;BME280;69865;47.648;19.030;2024-03-08T02:27:39;100826.53;;;5.18;100.00
80103;BME280;69865;47.648;19.030;2024-03-08T02:28:12;100822.16;;;5.18;100.00
80103;BME280;69865;47.648;19.030;2024-03-08T02:28:45;100824.88;;;5.17;100.00
80103;BME280;69865;47.648;19.030;2024-03-08T02:29:18;100824.69;;;5.20;100.00
80103;BME280;69865;47.648;19.030;2024-03-08T02:29:50;100824.59;;;5.21;100.00
80103;BME280;69865;47.648;19.030;2024-03-08T02:30:24;100830.66;;;5.22;100.00
80103;BME280;69865;47.648;19.030;2024-03-08T02:30:56;100823.00;;;5.19;100.00
80103;BME280;69865;47.648;19.030;2024-03-08T02:31:29;100831.69;;;5.19;100.00
80103;BME280;69865;47.648;19.030;2024-03-08T02:32:02;100829.00;;;5.21;100.00
80103;BME280;69865;47.648;19.030;2024-03-08T02:32:34;100827.13;;;5.23;100.00
80103;BME280;69865;47.648;19.030;2024-03-08T02:33:07;100835.72;;;5.25;100.00
80103;BME280;69865;47.648;19.030;2024-03-08T02:33:39;100830.50;;;5.25;100.00
80103;BME280;69865;47.648;19.030;2024-03-08T02:34:12;100828.69;;;5.26;100.00
80103;BME280;69865;47.648;19.030;2024-03-08T02:34:44;100836.47;;;5.27;100.00
80103;BME280;69865;47.648;19.030;2024-03-08T02:35:16;100832.16;;;5.26;100.00
80103;BME280;69865;47.648;19.030;2024-03-08T02:35:50;100832.16;;;5.26;100.00
80103;BME280;69865;47.648;19.030;2024-03-08T02:36:23;100832.09;;;5.28;100.00
80103;BME280;69865;47.648;19.030;2024-03-08T02:36:55;100832.81;;;5.30;100.00
80103;BME280;69865;47.648;19.030;2024-03-08T02:37:27;100835.38;;;5.31;100.00
80103;BME280;69865;47.648;19.030;2024-03-08T02:38:00;100833.59;;;5.32;100.00
80103;BME280;69865;47.648;19.030;2024-03-08T02:38:32;100832.75;;;5.31;100.00
80103;BME280;69865;47.648;19.030;2024-03-08T02:39:04;100831.06;;;5.30;100.00
80103;BME280;69865;47.648;19.030;2024-03-08T02:39:36;100824.91;;;5.31;100.00
80103;BME280;69865;47.648;19.030;2024-03-08T02:40:10;100818.25;;;5.26;100.00
80103;BME280;69865;47.648;19.030;2024-03-08T02:40:44;100831.16;;;5.29;100.00
80103;BME280;69865;47.648;19.030;2024-03-08T02:41:16;100829.41;;;5.29;100.00
80103;BME280;69865;47.648;19.030;2024-03-08T02:41:48;100827.72;;;5.28;100.00
80103;BME280;69865;47.648;19.030;2024-03-08T02:42:20;100832.81;;;5.30;100.00
80103;BME280;69865;47.648;19.030;2024-03-08T02:42:52;100831.06;;;5.30;100.00
80103;BME280;69865;47.648;19.030;2024-03-08T02:43:25;100827.53;;;5.31;100.00
80103;BME280;69865;47.648;19.030;2024-03-08T02:43:57;100827.53;;;5.31;100.00
80103;BME280;69865;47.648;19.030;2024-03-08T02:44:44;100828.28;;;5.33;100.00
80103;BME280;69865;47.648;19.030;2024-03-08T02:45:16;100828.28;;;5.33;100.00
80103;BME280;69865;47.648;19.030;2024-03-08T02:45:49;100829.09;;;5.34;100.00
80103;BME280;69865;47.648;19.030;2024-03-08T02:46:21;100834.25;;;5.35;100.00
80103;BME280;69865;47.648;19.030;2024-03-08T02:46:53;100834.25;;;5.35;100.00
80103;BME280;69865;47.648;19.030;2024-03-08T02:47:25;100834.34;;;5.34;100.00
80103;BME280;69865;47.648;19.030;2024-03-08T02:47:59;100829.41;;;5.29;100.00
80103;BME280;69865;47.648;19.030;2024-03-08T02:48:31;100828.44;;;5.30;100.00
80103;BME280;69865;47.648;19.030;2024-03-08T02:49:03;100831.84;;;5.32;100.00
80103;BME280;69865;47.648;19.030;2024-03-08T02:49:36;100830.13;;;5.31;100.00